createdAt,value
2023-06-11T00:01:34.371Z,1.02
2023-06-11T00:04:06.035Z,0.80
2023-06-11T00:06:37.772Z,1.20
2023-06-11T00:09:09.286Z,1.02
2023-06-11T00:11:40.819Z,1.25
2023-06-11T00:14:12.634Z,1.05
2023-06-11T00:16:44.409Z,1.60
2023-06-11T00:19:16.021Z,1.13
2023-06-11T00:21:47.515Z,1.23
2023-06-11T00:24:19.433Z,1.00
2023-06-11T00:26:51.082Z,1.10
2023-06-11T00:29:22.749Z,0.98
2023-06-11T00:31:54.303Z,0.93
2023-06-11T00:34:25.975Z,1.10
2023-06-11T00:36:57.476Z,1.35
2023-06-11T00:39:29.287Z,1.10
2023-06-11T00:42:00.840Z,0.90
2023-06-11T00:44:32.910Z,1.55
2023-06-11T00:47:04.719Z,0.90
2023-06-11T00:49:36.626Z,1.00
2023-06-11T00:52:08.401Z,1.25
2023-06-11T00:54:39.924Z,1.10
2023-06-11T00:57:11.746Z,1.23
2023-06-11T00:59:43.229Z,1.08
2023-06-11T01:02:14.911Z,1.20
2023-06-11T01:04:46.488Z,1.00
2023-06-11T01:07:18.402Z,0.85
2023-06-11T01:09:49.900Z,1.05
2023-06-11T01:12:21.754Z,0.90
2023-06-11T01:14:53.240Z,1.00
2023-06-11T01:17:25.248Z,0.75
2023-06-11T01:19:57.105Z,0.90
2023-06-11T01:22:28.964Z,1.17
2023-06-11T01:25:00.997Z,0.85
2023-06-11T01:27:32.489Z,0.80
2023-06-11T01:30:04.380Z,1.05
2023-06-11T01:32:35.929Z,0.98
2023-06-11T01:35:07.990Z,0.98
2023-06-11T01:37:39.771Z,1.13
2023-06-11T01:40:11.666Z,0.70
2023-06-11T01:42:43.195Z,0.93
2023-06-11T01:45:15.124Z,1.08
2023-06-11T01:47:46.697Z,0.75
2023-06-11T01:50:18.278Z,1.08
2023-06-11T01:52:50.168Z,0.95
2023-06-11T01:55:22.044Z,1.02
2023-06-11T01:57:54.011Z,0.88
2023-06-11T02:00:25.570Z,0.70
2023-06-11T02:02:57.950Z,0.95
2023-06-11T02:05:29.632Z,0.80
2023-06-11T02:08:01.581Z,1.00
2023-06-11T02:10:33.103Z,0.77
2023-06-11T02:13:04.920Z,0.93
2023-06-11T02:15:36.453Z,1.30
2023-06-11T02:18:08.468Z,0.80
2023-06-11T02:20:40.093Z,0.87
2023-06-11T02:23:11.817Z,1.60
2023-06-11T02:25:43.390Z,1.30
2023-06-11T02:28:15.103Z,0.70
2023-06-11T02:30:46.661Z,0.80
2023-06-11T02:33:18.605Z,0.93
2023-06-11T02:35:50.491Z,0.70
2023-06-11T02:38:22.020Z,0.80
2023-06-11T02:40:53.599Z,1.13
2023-06-11T02:43:25.123Z,0.90
2023-06-11T02:45:56.927Z,0.90
2023-06-11T02:48:28.521Z,0.90
2023-06-11T02:51:00.368Z,1.08
2023-06-11T02:53:31.882Z,1.02
2023-06-11T02:56:03.836Z,0.90
2023-06-11T02:58:35.419Z,1.23
2023-06-11T03:01:07.344Z,1.20
2023-06-11T03:03:38.951Z,0.75
2023-06-11T03:06:10.943Z,1.00
2023-06-11T03:08:42.802Z,1.50
2023-06-11T03:11:14.301Z,0.90
2023-06-11T03:13:46.205Z,0.82
2023-06-11T03:16:17.899Z,0.77
2023-06-11T03:18:49.737Z,0.98
2023-06-11T03:21:21.264Z,0.65
2023-06-11T03:23:53.284Z,1.00
2023-06-11T03:26:24.849Z,1.10
2023-06-11T03:28:56.846Z,0.82
2023-06-11T03:31:28.440Z,0.85
2023-06-11T03:34:00.379Z,0.90
2023-06-11T03:36:32.167Z,1.13
2023-06-11T03:39:04.193Z,0.80
2023-06-11T03:41:35.919Z,0.90
2023-06-11T03:44:07.440Z,0.88
2023-06-11T03:46:39.350Z,1.00
2023-06-11T03:49:10.933Z,1.13
2023-06-11T03:51:42.811Z,0.95
2023-06-11T03:54:14.350Z,1.02
2023-06-11T03:56:46.233Z,0.77
2023-06-11T03:59:17.783Z,0.75
2023-06-11T04:01:49.993Z,1.23
2023-06-11T04:04:21.576Z,0.80
2023-06-11T04:06:53.584Z,0.80
2023-06-11T04:09:25.357Z,1.00
2023-06-11T04:11:57.313Z,1.02
2023-06-11T04:14:29.194Z,0.90
2023-06-11T04:17:00.846Z,0.95
2023-06-11T04:19:32.893Z,0.82
2023-06-11T04:22:04.486Z,1.10
2023-06-11T04:24:36.558Z,0.90
2023-06-11T04:27:08.094Z,0.80
2023-06-11T04:29:39.945Z,0.98
2023-06-11T04:32:11.522Z,1.13
2023-06-11T04:34:43.196Z,0.80
2023-06-11T04:37:14.731Z,0.88
2023-06-11T04:39:46.609Z,0.77
2023-06-11T04:42:18.146Z,0.85
2023-06-11T04:44:50.032Z,0.82
2023-06-11T04:47:22.005Z,1.05
2023-06-11T04:49:53.545Z,0.83
2023-06-11T04:52:25.401Z,1.00
2023-06-11T04:54:56.949Z,0.70
2023-06-11T04:57:28.682Z,0.90
2023-06-11T05:00:00.236Z,0.85
2023-06-11T05:02:32.056Z,0.90
2023-06-11T05:05:03.657Z,0.98
2023-06-11T05:07:35.721Z,0.70
2023-06-11T05:10:07.318Z,1.00
2023-06-11T05:12:39.420Z,0.90
2023-06-11T05:15:11.174Z,0.73
2023-06-11T05:17:43.360Z,0.85
2023-06-11T05:20:14.943Z,0.95
2023-06-11T05:22:46.754Z,1.10
2023-06-11T05:25:18.537Z,0.80
2023-06-11T05:27:50.069Z,1.10
2023-06-11T05:30:21.837Z,1.20
2023-06-11T05:32:53.446Z,0.85
2023-06-11T05:35:25.203Z,1.05
2023-06-11T05:37:56.747Z,1.00
2023-06-11T05:40:28.628Z,1.45
2023-06-11T05:43:00.181Z,1.30
2023-06-11T05:45:32.330Z,1.30
2023-06-11T05:48:03.949Z,1.02
2023-06-11T05:50:35.862Z,1.00
2023-06-11T05:53:07.734Z,1.17
2023-06-11T05:55:39.481Z,0.90
2023-06-11T05:58:11.333Z,1.10
2023-06-11T06:00:42.887Z,1.10
2023-06-11T06:03:14.685Z,1.20
2023-06-11T06:05:46.302Z,1.08
2023-06-11T06:08:18.167Z,1.23
2023-06-11T06:10:49.711Z,0.80
2023-06-11T06:13:21.676Z,2.67
2023-06-11T06:15:53.247Z,1.27
2023-06-11T06:18:25.068Z,1.00
2023-06-11T06:20:56.627Z,1.30
2023-06-11T06:23:28.495Z,0.95
2023-06-11T06:26:00.065Z,1.48
2023-06-11T06:28:31.909Z,1.30
2023-06-11T06:31:03.631Z,1.60
2023-06-11T06:33:35.364Z,1.35
2023-06-11T06:36:07.113Z,1.33
2023-06-11T06:38:38.662Z,1.08
2023-06-11T06:41:10.385Z,1.20
2023-06-11T06:43:41.873Z,1.10
2023-06-11T06:46:13.733Z,1.23
2023-06-11T06:48:45.448Z,1.38
2023-06-11T06:51:17.239Z,1.50
2023-06-11T06:53:48.734Z,1.15
2023-06-11T06:56:20.492Z,1.27
2023-06-11T06:58:52.463Z,1.57
2023-06-11T07:01:24.308Z,1.33
2023-06-11T07:03:56.387Z,1.20
2023-06-11T07:06:27.898Z,1.35
2023-06-11T07:08:59.718Z,1.50
2023-06-11T07:11:31.218Z,1.43
2023-06-11T07:14:03.190Z,1.45
2023-06-11T07:16:34.768Z,1.50
2023-06-11T07:19:06.698Z,1.10
2023-06-11T07:21:38.337Z,1.77
2023-06-11T07:24:10.102Z,1.00
2023-06-11T07:26:41.676Z,1.30
2023-06-11T07:29:13.505Z,1.35
2023-06-11T07:31:45.368Z,1.50
2023-06-11T07:34:16.905Z,1.35
2023-06-11T07:36:48.847Z,1.25
2023-06-11T07:39:20.339Z,1.60
2023-06-11T07:41:52.157Z,1.80
2023-06-11T07:44:23.648Z,1.40
2023-06-11T07:46:55.478Z,1.45
2023-06-11T07:49:27.058Z,1.48
2023-06-11T07:51:58.893Z,1.38
2023-06-11T07:54:30.391Z,1.60
2023-06-11T07:57:01.923Z,1.58
2023-06-11T07:59:33.676Z,1.52
2023-06-11T08:02:05.475Z,1.23
2023-06-11T08:04:37.180Z,1.60
2023-06-11T08:07:08.696Z,1.70
2023-06-11T08:09:40.563Z,1.25
2023-06-11T08:12:12.083Z,1.60
2023-06-11T08:14:43.905Z,1.70
2023-06-11T08:17:15.400Z,1.53
2023-06-11T08:19:47.366Z,1.70
2023-06-11T08:22:18.876Z,1.52
2023-06-11T08:24:50.839Z,1.73
2023-06-11T08:27:22.658Z,1.50
2023-06-11T08:29:54.489Z,1.80
2023-06-11T08:32:26.688Z,1.83
2023-06-11T08:34:58.418Z,1.83
2023-06-11T08:37:30.537Z,1.70
2023-06-11T08:40:02.064Z,1.88
2023-06-11T08:42:33.935Z,1.75
2023-06-11T08:45:05.457Z,1.42
2023-06-11T08:47:37.155Z,1.92
2023-06-11T08:50:08.917Z,1.73
2023-06-11T08:52:40.891Z,1.70
2023-06-11T08:55:12.391Z,1.90
2023-06-11T08:57:44.166Z,1.70
2023-06-11T09:00:15.660Z,1.77
2023-06-11T09:02:47.594Z,1.60
2023-06-11T09:05:19.625Z,1.95
2023-06-11T09:07:51.129Z,1.65
2023-06-11T09:10:23.041Z,1.98
2023-06-11T09:12:56.802Z,1.40
2023-06-11T09:15:29.566Z,1.75
2023-06-11T09:18:01.159Z,2.08
2023-06-11T09:20:33.030Z,2.20
2023-06-11T09:23:04.538Z,1.92
2023-06-11T09:25:36.367Z,2.25
2023-06-11T09:28:07.845Z,1.90
2023-06-11T09:30:39.724Z,1.90
2023-06-11T09:33:11.667Z,1.75
2023-06-11T09:35:43.157Z,2.50
2023-06-11T09:38:15.019Z,2.08
2023-06-11T09:40:46.517Z,1.85
2023-06-11T09:43:18.284Z,2.00
2023-06-11T09:45:49.833Z,1.90
2023-06-11T09:48:21.795Z,2.00
2023-06-11T09:50:53.290Z,2.08
2023-06-11T09:53:25.153Z,2.30
2023-06-11T09:56:09.310Z,2.47
2023-06-11T09:58:42.819Z,2.05
2023-06-11T10:01:14.650Z,1.90
2023-06-11T10:03:46.216Z,2.13
2023-06-11T10:06:17.932Z,2.45
2023-06-11T10:08:49.443Z,2.33
2023-06-11T10:11:21.478Z,2.40
2023-06-11T10:13:52.959Z,2.08
2023-06-11T10:16:24.764Z,2.25
2023-06-11T10:18:56.322Z,2.08
2023-06-11T10:21:28.302Z,2.17
2023-06-11T10:24:00.029Z,2.13
2023-06-11T10:26:32.069Z,2.20
2023-06-11T10:29:06.303Z,2.47
2023-06-11T10:31:38.674Z,2.42
2023-06-11T10:34:10.561Z,2.77
2023-06-11T10:36:42.097Z,2.80
2023-06-11T10:39:13.926Z,2.13
2023-06-11T10:41:45.447Z,2.15
2023-06-11T10:44:17.272Z,2.57
2023-06-11T10:46:48.802Z,2.63
2023-06-11T10:49:20.669Z,2.43
2023-06-11T10:51:52.146Z,2.22
2023-06-11T10:54:24.106Z,2.17
2023-06-11T10:56:55.921Z,2.55
2023-06-11T10:59:27.755Z,2.63
2023-06-11T11:01:59.489Z,2.72
2023-06-11T11:04:31.112Z,2.22
2023-06-11T11:07:02.807Z,2.50
2023-06-11T11:09:34.307Z,2.47
2023-06-11T11:12:06.091Z,2.80
2023-06-11T11:14:37.608Z,2.78
2023-06-11T11:17:09.576Z,2.90
2023-06-11T11:19:41.148Z,2.50
2023-06-11T11:22:13.869Z,2.53
2023-06-11T11:24:45.382Z,2.50
2023-06-11T11:27:16.888Z,2.70
2023-06-11T11:29:48.707Z,2.70
2023-06-11T11:32:20.247Z,3.17
2023-06-11T11:34:52.081Z,3.17
2023-06-11T11:37:23.622Z,2.92
2023-06-11T11:39:55.544Z,2.72
2023-06-11T11:42:27.029Z,2.90
2023-06-11T11:44:58.876Z,3.00
2023-06-11T11:47:30.452Z,2.67
2023-06-11T11:50:02.322Z,2.95
2023-06-11T11:52:33.811Z,2.78
2023-06-11T11:55:05.723Z,2.90
2023-06-11T11:57:37.252Z,3.17
2023-06-11T12:00:08.851Z,3.03
2023-06-11T12:02:40.751Z,3.13
2023-06-11T12:05:12.304Z,2.60
2023-06-11T12:07:44.121Z,3.17
2023-06-11T12:10:15.747Z,2.85
2023-06-11T12:12:47.564Z,3.42
2023-06-11T12:15:19.081Z,3.03
2023-06-11T12:17:50.631Z,3.10
2023-06-11T12:20:22.179Z,3.42
2023-06-11T12:22:54.054Z,3.53
2023-06-11T12:25:26.160Z,3.17
2023-06-11T12:27:58.030Z,3.22
2023-06-11T12:30:29.984Z,3.65
2023-06-11T12:33:01.629Z,3.70
2023-06-11T12:35:33.539Z,3.13
2023-06-11T12:38:05.048Z,4.00
2023-06-11T12:40:37.101Z,4.03
2023-06-11T12:43:08.594Z,3.72
2023-06-11T12:45:40.363Z,3.83
2023-06-11T12:48:11.984Z,3.80
2023-06-11T12:50:44.102Z,3.20
2023-06-11T12:55:47.626Z,3.40
2023-06-11T12:58:19.148Z,3.58
2023-06-11T13:00:50.676Z,3.40
2023-06-11T13:03:22.666Z,3.53
2023-06-11T13:05:54.168Z,3.72
2023-06-11T13:08:26.050Z,3.58
2023-06-11T13:10:57.548Z,3.70
2023-06-11T13:13:29.409Z,4.20
2023-06-11T13:16:00.931Z,4.05
2023-06-11T13:18:32.805Z,3.70
2023-06-11T13:21:04.302Z,4.03
2023-06-11T13:23:36.159Z,4.43
2023-06-11T13:26:07.685Z,4.00
2023-06-11T13:28:39.510Z,3.97
2023-06-11T13:31:11.061Z,3.65
2023-06-11T13:33:42.640Z,3.95
2023-06-11T13:36:14.342Z,4.07
2023-06-11T13:38:45.849Z,4.10
2023-06-11T13:41:17.720Z,3.85
2023-06-11T13:43:49.218Z,3.75
2023-06-11T13:46:21.100Z,4.40
2023-06-11T13:48:52.637Z,4.00
2023-06-11T13:51:24.646Z,4.25
2023-06-11T13:53:56.200Z,3.72
2023-06-11T13:56:27.830Z,4.00
2023-06-11T13:58:59.344Z,4.05
2023-06-11T14:01:31.168Z,3.65
2023-06-11T14:04:02.679Z,3.83
2023-06-11T14:06:34.508Z,3.63
2023-06-11T14:09:06.376Z,3.65
2023-06-11T14:11:38.213Z,3.75
2023-06-11T14:14:10.043Z,3.80
2023-06-11T14:16:41.603Z,3.58
2023-06-11T14:19:13.500Z,4.15
2023-06-11T14:21:45.000Z,3.67
2023-06-11T14:24:17.093Z,3.77
2023-06-11T14:26:48.645Z,3.88
2023-06-11T14:29:20.363Z,3.80
2023-06-11T14:31:51.933Z,4.03
2023-06-11T14:34:23.919Z,3.83
2023-06-11T14:36:55.409Z,3.55
2023-06-11T14:39:27.140Z,3.97
2023-06-11T14:41:59.020Z,3.90
2023-06-11T14:44:31.062Z,3.78
2023-06-11T14:47:02.949Z,3.58
2023-06-11T14:49:34.434Z,3.75
2023-06-11T14:52:06.247Z,3.75
2023-06-11T14:54:37.773Z,3.72
2023-06-11T14:57:09.626Z,3.20
2023-06-11T14:59:41.143Z,3.55
2023-06-11T15:02:13.014Z,3.42
2023-06-11T15:04:44.553Z,3.65
2023-06-11T15:07:29.784Z,3.88
2023-06-11T15:10:06.042Z,3.67
2023-06-11T15:12:38.043Z,3.47
2023-06-11T15:15:09.768Z,3.55
2023-06-11T15:17:41.295Z,3.30
2023-06-11T15:20:13.322Z,3.15
2023-06-11T15:22:45.086Z,3.22
2023-06-11T15:25:16.967Z,3.85
2023-06-11T15:27:48.494Z,3.35
2023-06-11T15:30:20.159Z,3.40
2023-06-11T15:32:51.699Z,3.70
2023-06-11T15:35:23.657Z,3.22
2023-06-11T15:37:55.163Z,3.22
2023-06-11T15:40:27.001Z,3.00
2023-06-11T15:42:58.849Z,3.20
2023-06-11T15:45:30.697Z,3.28
2023-06-11T15:48:02.386Z,3.40
2023-06-11T15:50:33.974Z,3.00
2023-06-11T15:53:05.964Z,3.15
2023-06-11T15:55:37.472Z,3.65
2023-06-11T15:58:09.316Z,3.42
2023-06-11T16:00:40.805Z,3.20
2023-06-11T16:03:12.726Z,3.03
2023-06-11T16:05:44.237Z,3.38
2023-06-11T16:08:16.121Z,3.20
2023-06-11T16:10:47.647Z,3.22
2023-06-11T16:13:19.543Z,3.42
2023-06-11T16:15:51.270Z,3.20
2023-06-11T16:18:22.855Z,3.35
2023-06-11T16:20:54.711Z,3.55
2023-06-11T16:23:26.202Z,3.58
2023-06-11T16:25:58.096Z,3.50
2023-06-11T16:28:29.615Z,2.67
2023-06-11T16:31:01.624Z,3.57
2023-06-11T16:33:47.637Z,3.13
2023-06-11T16:36:24.976Z,3.13
2023-06-11T16:39:01.226Z,3.00
2023-06-11T16:41:38.351Z,3.28
2023-06-11T16:44:10.212Z,2.92
2023-06-11T16:46:41.873Z,3.13
2023-06-11T16:49:13.851Z,3.15
2023-06-11T16:51:45.387Z,3.28
2023-06-11T16:54:18.918Z,2.80
2023-06-11T16:56:50.841Z,3.20
2023-06-11T16:59:22.620Z,3.10
2023-06-11T17:01:54.131Z,3.22
2023-06-11T17:04:26.034Z,2.95
2023-06-11T17:06:58.106Z,2.92
2023-06-11T17:09:29.944Z,3.05
2023-06-11T17:12:01.821Z,2.85
2023-06-11T17:14:33.367Z,2.63
2023-06-11T17:17:05.343Z,3.00
2023-06-11T17:19:36.968Z,2.53
2023-06-11T17:22:08.769Z,3.10
2023-06-11T17:24:40.374Z,2.70
2023-06-11T17:27:12.542Z,2.90
2023-06-11T17:29:44.049Z,2.45
2023-06-11T17:32:15.866Z,2.60
2023-06-11T17:34:47.406Z,2.72
2023-06-11T17:37:19.111Z,2.22
2023-06-11T17:39:50.638Z,3.10
2023-06-11T17:42:22.490Z,2.20
2023-06-11T17:44:54.284Z,2.60
2023-06-11T17:47:26.189Z,2.70
2023-06-11T17:49:58.035Z,2.78
2023-06-11T17:52:29.588Z,2.65
2023-06-11T17:55:01.618Z,2.30
2023-06-11T17:57:33.110Z,2.70
2023-06-11T18:00:04.859Z,2.38
2023-06-11T18:02:36.361Z,2.77
2023-06-11T18:05:08.510Z,2.40
2023-06-11T18:07:40.140Z,2.53
2023-06-11T18:10:11.981Z,2.65
2023-06-11T18:12:43.470Z,2.25
2023-06-11T18:17:49.799Z,2.05
2023-06-11T18:20:21.779Z,2.67
2023-06-11T18:22:53.261Z,2.43
2023-06-11T18:25:25.254Z,2.67
2023-06-11T18:27:57.109Z,2.58
2023-06-11T18:30:29.057Z,2.70
2023-06-11T18:33:00.903Z,2.60
2023-06-11T18:35:32.451Z,2.60
2023-06-11T18:38:04.244Z,2.60
2023-06-11T18:40:35.748Z,2.15
2023-06-11T18:43:07.278Z,2.40
2023-06-11T18:45:38.869Z,2.33
2023-06-11T18:48:10.849Z,2.17
2023-06-11T18:50:42.352Z,2.37
2023-06-11T18:53:14.310Z,2.17
2023-06-11T18:55:45.798Z,2.40
2023-06-11T18:58:18.443Z,2.10
2023-06-11T19:00:50.192Z,2.45
2023-06-11T19:03:21.823Z,2.45
2023-06-11T19:05:53.837Z,2.30
2023-06-11T19:08:25.367Z,2.38
2023-06-11T19:10:57.294Z,2.05
2023-06-11T19:13:28.799Z,2.20
2023-06-11T19:16:00.802Z,2.08
2023-06-11T19:18:32.301Z,2.30
2023-06-11T19:21:04.137Z,2.03
2023-06-11T19:23:35.632Z,2.53
2023-06-11T19:26:08.670Z,2.30
2023-06-11T19:28:40.165Z,2.70
2023-06-11T19:31:11.944Z,2.20
2023-06-11T19:33:43.549Z,2.47
2023-06-11T19:36:15.147Z,2.35
2023-06-11T19:38:46.706Z,2.30
2023-06-11T19:41:18.285Z,2.20
2023-06-11T19:43:50.122Z,2.13
2023-06-11T19:46:23.992Z,2.23
2023-06-11T19:48:57.434Z,1.90
2023-06-11T19:51:28.988Z,2.60
2023-06-11T19:54:00.526Z,4.35
2023-06-11T19:56:32.059Z,4.70
2023-06-11T19:59:03.848Z,4.80
2023-06-11T20:01:35.584Z,2.83
2023-06-11T20:04:07.586Z,2.63
2023-06-11T20:06:39.510Z,2.23
2023-06-11T20:09:11.115Z,2.33
2023-06-11T20:11:43.039Z,2.33
2023-06-11T20:14:14.575Z,1.90
2023-06-11T20:16:46.580Z,2.15
2023-06-11T20:19:18.295Z,2.03
2023-06-11T20:21:50.140Z,2.20
2023-06-11T20:24:21.758Z,2.72
2023-06-11T20:26:53.758Z,2.10
2023-06-11T20:29:25.777Z,2.20
2023-06-11T20:31:57.660Z,2.45
2023-06-11T20:34:29.481Z,2.03
2023-06-11T20:37:01.013Z,2.40
2023-06-11T20:39:33.066Z,1.92
2023-06-11T20:42:04.782Z,2.40
2023-06-11T20:44:36.800Z,2.58
2023-06-11T20:47:08.380Z,1.70
2023-06-11T20:49:40.502Z,2.30
2023-06-11T20:52:13.123Z,2.10
2023-06-11T20:54:44.939Z,2.03
2023-06-11T20:57:16.504Z,2.42
2023-06-11T20:59:48.490Z,2.25
2023-06-11T21:02:20.435Z,1.97
2023-06-11T21:04:52.410Z,2.10
2023-06-11T21:07:24.352Z,2.10
2023-06-11T21:09:55.848Z,2.83
2023-06-11T21:12:27.699Z,1.95
2023-06-11T21:14:59.207Z,2.67
2023-06-11T21:17:31.129Z,2.63
2023-06-11T21:20:02.664Z,2.15
2023-06-11T21:22:34.177Z,2.05
2023-06-11T21:25:05.674Z,2.38
2023-06-11T21:27:37.590Z,2.10
2023-06-11T21:30:09.200Z,2.17
2023-06-11T21:32:41.128Z,2.05
2023-06-11T21:35:13.128Z,2.10
2023-06-11T21:37:44.927Z,2.23
2023-06-11T21:40:16.943Z,1.92
2023-06-11T21:42:48.671Z,2.20
2023-06-11T21:45:20.611Z,2.20
2023-06-11T21:47:52.152Z,2.10
2023-06-11T21:50:24.004Z,2.08
2023-06-11T21:52:55.490Z,2.00
2023-06-11T21:55:27.370Z,1.98
2023-06-11T21:57:58.888Z,2.03
2023-06-11T22:00:30.439Z,1.77
2023-06-11T22:03:02.071Z,2.08
2023-06-11T22:05:33.853Z,2.20
2023-06-11T22:08:05.808Z,2.08
2023-06-11T22:10:37.782Z,2.00
2023-06-11T22:13:09.649Z,1.83
2023-06-11T22:15:41.195Z,2.38
2023-06-11T22:18:13.075Z,2.42
2023-06-11T22:20:44.742Z,2.38
2023-06-11T22:23:16.594Z,2.22
2023-06-11T22:25:48.126Z,2.25
2023-06-11T22:28:20.098Z,2.33
2023-06-11T22:30:56.821Z,2.33
2023-06-11T22:33:29.218Z,2.17
2023-06-11T22:36:00.722Z,2.17
2023-06-11T22:38:32.627Z,1.70
2023-06-11T22:41:04.237Z,2.00
2023-06-11T22:43:36.071Z,1.88
2023-06-11T22:46:07.892Z,1.73
2023-06-11T22:48:39.410Z,1.73
2023-06-11T22:51:11.351Z,2.17
2023-06-11T22:53:42.863Z,1.57
2023-06-11T22:56:14.625Z,2.15
2023-06-11T22:58:46.134Z,1.83
2023-06-11T23:01:18.025Z,2.20
2023-06-11T23:03:49.520Z,2.10
2023-06-11T23:06:21.398Z,2.55
2023-06-11T23:08:52.920Z,2.03
2023-06-11T23:11:24.729Z,2.20
2023-06-11T23:13:56.580Z,1.98
2023-06-11T23:16:28.453Z,1.80
2023-06-11T23:19:00.531Z,2.08
2023-06-11T23:21:32.082Z,2.13
2023-06-11T23:24:04.029Z,2.05
2023-06-11T23:26:35.557Z,1.60
2023-06-11T23:29:07.235Z,1.92
2023-06-11T23:31:38.780Z,2.30
2023-06-11T23:34:10.603Z,1.98
2023-06-11T23:36:42.093Z,2.00
2023-06-11T23:39:13.955Z,1.40
2023-06-11T23:41:45.444Z,2.10
2023-06-11T23:44:17.320Z,1.48
2023-06-11T23:46:48.894Z,1.65
2023-06-11T23:49:20.697Z,2.35
2023-06-11T23:51:52.512Z,2.05
2023-06-11T23:54:24.001Z,1.80
2023-06-11T23:56:55.838Z,2.20
2023-06-11T23:59:27.332Z,1.67
